sensor_id;sensor_type;location;lat;lon;timestamp;pressure;altitude;pressure_sealevel;temperature;humidity
25560;BME280;13450;49.374;8.584;2023-04-08T00:00:35;100875.75;;;7.44;100.00
25560;BME280;13450;49.374;8.584;2023-04-08T00:03:04;100883.09;;;7.51;100.00
25560;BME280;13450;49.374;8.584;2023-04-08T00:05:29;100882.41;;;7.49;100.00
25560;BME280;13450;49.374;8.584;2023-04-08T00:07:58;100881.28;;;7.51;100.00
25560;BME280;13450;49.374;8.584;2023-04-08T00:10:23;100871.44;;;7.52;100.00
25560;BME280;13450;49.374;8.584;2023-04-08T00:12:50;100882.63;;;7.55;100.00
25560;BME280;13450;49.374;8.584;2023-04-08T00:15:15;100882.31;;;7.58;100.00
25560;BME280;13450;49.374;8.584;2023-04-08T00:17:41;100885.97;;;7.57;100.00
25560;BME280;13450;49.374;8.584;2023-04-08T00:20:06;100884.84;;;7.60;100.00
25560;BME280;13450;49.374;8.584;2023-04-08T00:22:33;100879.50;;;7.60;100.00
25560;BME280;13450;49.374;8.584;2023-04-08T00:24:59;100884.53;;;7.63;100.00
25560;BME280;13450;49.374;8.584;2023-04-08T00:27:25;100885.19;;;7.65;100.00
25560;BME280;13450;49.374;8.584;2023-04-08T00:29:51;100889.53;;;7.66;100.00
25560;BME280;13450;49.374;8.584;2023-04-08T00:32:16;100881.88;;;7.63;100.00
25560;BME280;13450;49.374;8.584;2023-04-08T00:34:41;100877.84;;;7.59;100.00
25560;BME280;13450;49.374;8.584;2023-04-08T00:37:07;100883.78;;;7.53;100.00
25560;BME280;13450;49.374;8.584;2023-04-08T00:39:32;100884.91;;;7.50;100.00
25560;BME280;13450;49.374;8.584;2023-04-08T00:41:58;100885.41;;;7.45;100.00
25560;BME280;13450;49.374;8.584;2023-04-08T00:44:23;100890.16;;;7.42;100.00
25560;BME280;13450;49.374;8.584;2023-04-08T00:46:48;100885.41;;;7.45;100.00
25560;BME280;13450;49.374;8.584;2023-04-08T00:49:14;100886.91;;;7.48;100.00
25560;BME280;13450;49.374;8.584;2023-04-08T00:51:40;100887.44;;;7.52;100.00
25560;BME280;13450;49.374;8.584;2023-04-08T00:54:05;100890.25;;;7.50;100.00
25560;BME280;13450;49.374;8.584;2023-04-08T00:56:31;100886.59;;;7.51;100.00
25560;BME280;13450;49.374;8.584;2023-04-08T00:58:59;100894.41;;;7.53;100.00
25560;BME280;13450;49.374;8.584;2023-04-08T01:01:42;100889.78;;;7.55;100.00
25560;BME280;13450;49.374;8.584;2023-04-08T01:06:40;100894.81;;;7.58;100.00
25560;BME280;13450;49.374;8.584;2023-04-08T01:09:11;100888.50;;;7.59;100.00
25560;BME280;13450;49.374;8.584;2023-04-08T01:11:42;100891.81;;;7.61;100.00
25560;BME280;13450;49.374;8.584;2023-04-08T01:14:08;100889.00;;;7.63;100.00
25560;BME280;13450;49.374;8.584;2023-04-08T01:16:38;100896.00;;;7.64;100.00
25560;BME280;13450;49.374;8.584;2023-04-08T01:19:07;100893.91;;;7.67;100.00
25560;BME280;13450;49.374;8.584;2023-04-08T01:21:35;100890.22;;;7.68;100.00
25560;BME280;13450;49.374;8.584;2023-04-08T01:24:19;100891.22;;;7.67;100.00
25560;BME280;13450;49.374;8.584;2023-04-08T01:26:48;100887.88;;;7.65;100.00
25560;BME280;13450;49.374;8.584;2023-04-08T01:29:14;100886.72;;;7.68;100.00
25560;BME280;13450;49.374;8.584;2023-04-08T01:31:42;100890.38;;;7.67;100.00
25560;BME280;13450;49.374;8.584;2023-04-08T01:34:10;100886.88;;;7.66;100.00
25560;BME280;13450;49.374;8.584;2023-04-08T01:36:38;100885.91;;;7.67;100.00
25560;BME280;13450;49.374;8.584;2023-04-08T01:39:04;100886.06;;;7.66;100.00
25560;BME280;13450;49.374;8.584;2023-04-08T01:41:32;100877.22;;;7.65;100.00
25560;BME280;13450;49.374;8.584;2023-04-08T01:43:58;100886.19;;;7.64;100.00
25560;BME280;13450;49.374;8.584;2023-04-08T01:46:25;100886.34;;;7.63;100.00
25560;BME280;13450;49.374;8.584;2023-04-08T01:48:51;100881.03;;;7.63;100.00
25560;BME280;13450;49.374;8.584;2023-04-08T01:51:21;100881.16;;;7.61;100.00
25560;BME280;13450;49.374;8.584;2023-04-08T01:53:49;100882.47;;;7.57;100.00
25560;BME280;13450;49.374;8.584;2023-04-08T01:56:21;100875.19;;;7.59;100.00
25560;BME280;13450;49.374;8.584;2023-04-08T01:58:50;100883.31;;;7.57;100.00
25560;BME280;13450;49.374;8.584;2023-04-08T02:01:19;100882.31;;;7.58;100.00
25560;BME280;13450;49.374;8.584;2023-04-08T02:03:45;100885.47;;;7.54;100.00
25560;BME280;13450;49.374;8.584;2023-04-08T02:06:11;100883.47;;;7.56;100.00
25560;BME280;13450;49.374;8.584;2023-04-08T02:08:39;100878.44;;;7.53;100.00
25560;BME280;13450;49.374;8.584;2023-04-08T02:11:04;100881.44;;;7.50;100.00
25560;BME280;13450;49.374;8.584;2023-04-08T02:13:33;100883.03;;;7.42;100.00
25560;BME280;13450;49.374;8.584;2023-04-08T02:16:15;100893.16;;;7.39;100.00
25560;BME280;13450;49.374;8.584;2023-04-08T02:18:45;100884.47;;;7.37;100.00
25560;BME280;13450;49.374;8.584;2023-04-08T02:21:15;100883.66;;;7.36;100.00
25560;BME280;13450;49.374;8.584;2023-04-08T02:23:47;100886.47;;;7.35;100.00
25560;BME280;13450;49.374;8.584;2023-04-08T02:26:14;100881.13;;;7.35;100.00
25560;BME280;13450;49.374;8.584;2023-04-08T02:28:44;100883.66;;;7.36;100.00
25560;BME280;13450;49.374;8.584;2023-04-08T02:31:11;100883.66;;;7.36;100.00
25560;BME280;13450;49.374;8.584;2023-04-08T02:33:39;100881.28;;;7.33;100.00
25560;BME280;13450;49.374;8.584;2023-04-08T02:36:08;100884.25;;;7.30;100.00
25560;BME280;13450;49.374;8.584;2023-04-08T02:38:33;100885.53;;;7.26;100.00
25560;BME280;13450;49.374;8.584;2023-04-08T02:40:59;100890.19;;;7.24;100.00
25560;BME280;13450;49.374;8.584;2023-04-08T02:43:25;100885.47;;;7.17;100.00
25560;BME280;13450;49.374;8.584;2023-04-08T02:45:59;100887.44;;;7.15;100.00
25560;BME280;13450;49.374;8.584;2023-04-08T02:48:27;100891.78;;;7.16;100.00
25560;BME280;13450;49.374;8.584;2023-04-08T02:50:52;100890.88;;;7.07;100.00
25560;BME280;13450;49.374;8.584;2023-04-08T02:53:18;100885.16;;;7.02;100.00
25560;BME280;13450;49.374;8.584;2023-04-08T02:55:43;100881.94;;;6.99;100.00
25560;BME280;13450;49.374;8.584;2023-04-08T02:58:11;100889.56;;;6.93;100.00
25560;BME280;13450;49.374;8.584;2023-04-08T03:00:36;100883.16;;;6.86;100.00
25560;BME280;13450;49.374;8.584;2023-04-08T03:03:06;100886.56;;;6.78;100.00
25560;BME280;13450;49.374;8.584;2023-04-08T03:05:32;100888.00;;;6.73;100.00
25560;BME280;13450;49.374;8.584;2023-04-08T03:07:57;100888.06;;;6.63;100.00
25560;BME280;13450;49.374;8.584;2023-04-08T03:10:23;100885.44;;;6.53;100.00
25560;BME280;13450;49.374;8.584;2023-04-08T03:12:48;100892.03;;;6.49;100.00
25560;BME280;13450;49.374;8.584;2023-04-08T03:15:16;100889.97;;;6.43;100.00
25560;BME280;13450;49.374;8.584;2023-04-08T03:17:41;100894.88;;;6.37;100.00
25560;BME280;13450;49.374;8.584;2023-04-08T03:20:07;100890.16;;;6.31;100.00
25560;BME280;13450;49.374;8.584;2023-04-08T03:22:33;100896.44;;;6.30;100.00
25560;BME280;13450;49.374;8.584;2023-04-08T03:24:58;100890.72;;;6.25;100.00
25560;BME280;13450;49.374;8.584;2023-04-08T03:27:24;100894.66;;;6.21;100.00
25560;BME280;13450;49.374;8.584;2023-04-08T03:29:49;100889.94;;;6.14;100.00
25560;BME280;13450;49.374;8.584;2023-04-08T03:32:15;100891.06;;;6.12;100.00
25560;BME280;13450;49.374;8.584;2023-04-08T03:34:40;100889.97;;;6.05;100.00
25560;BME280;13450;49.374;8.584;2023-04-08T03:37:06;100893.72;;;6.02;100.00
25560;BME280;13450;49.374;8.584;2023-04-08T03:39:32;100907.00;;;6.02;100.00
25560;BME280;13450;49.374;8.584;2023-04-08T03:41:57;100901.41;;;5.95;100.00
25560;BME280;13450;49.374;8.584;2023-04-08T03:44:25;100901.41;;;5.95;100.00
25560;BME280;13450;49.374;8.584;2023-04-08T03:46:50;100904.81;;;5.87;100.00
25560;BME280;13450;49.374;8.584;2023-04-08T03:49:16;100899.50;;;5.87;100.00
25560;BME280;13450;49.374;8.584;2023-04-08T03:51:41;100897.38;;;5.81;100.00
25560;BME280;13450;49.374;8.584;2023-04-08T03:54:06;100897.25;;;5.83;100.00
25560;BME280;13450;49.374;8.584;2023-04-08T03:56:32;100909.00;;;5.80;100.00
25560;BME280;13450;49.374;8.584;2023-04-08T03:58:59;100894.59;;;5.83;100.00
25560;BME280;13450;49.374;8.584;2023-04-08T04:01:24;100902.28;;;5.86;100.00
25560;BME280;13450;49.374;8.584;2023-04-08T04:03:49;100906.19;;;5.92;100.00
25560;BME280;13450;49.374;8.584;2023-04-08T04:06:15;100900.28;;;5.98;100.00
25560;BME280;13450;49.374;8.584;2023-04-08T04:08:40;100903.09;;;6.06;100.00
25560;BME280;13450;49.374;8.584;2023-04-08T04:11:05;100903.38;;;6.13;100.00
25560;BME280;13450;49.374;8.584;2023-04-08T04:13:31;100910.59;;;6.21;100.00
25560;BME280;13450;49.374;8.584;2023-04-08T04:15:56;100908.34;;;6.26;100.00
25560;BME280;13450;49.374;8.584;2023-04-08T04:18:21;100910.44;;;6.32;100.00
25560;BME280;13450;49.374;8.584;2023-04-08T04:20:52;100909.72;;;6.40;100.00
25560;BME280;13450;49.374;8.584;2023-04-08T04:23:17;100912.75;;;6.45;100.00
25560;BME280;13450;49.374;8.584;2023-04-08T04:25:43;100910.63;;;6.49;100.00
25560;BME280;13450;49.374;8.584;2023-04-08T04:28:10;100911.59;;;6.58;100.00
25560;BME280;13450;49.374;8.584;2023-04-08T04:30:39;100921.09;;;6.60;100.00
25560;BME280;13450;49.374;8.584;2023-04-08T04:33:05;100917.44;;;6.61;100.00
25560;BME280;13450;49.374;8.584;2023-04-08T04:35:31;100926.66;;;6.67;100.00
25560;BME280;13450;49.374;8.584;2023-04-08T04:37:56;100918.41;;;6.70;100.00
25560;BME280;13450;49.374;8.584;2023-04-08T04:40:24;100916.28;;;6.74;100.00
25560;BME280;13450;49.374;8.584;2023-04-08T04:42:50;100922.97;;;6.78;100.00
25560;BME280;13450;49.374;8.584;2023-04-08T04:45:15;100917.66;;;6.78;100.00
25560;BME280;13450;49.374;8.584;2023-04-08T04:47:40;100923.50;;;6.82;100.00
25560;BME280;13450;49.374;8.584;2023-04-08T04:50:06;100921.56;;;6.84;100.00
25560;BME280;13450;49.374;8.584;2023-04-08T04:52:31;100920.41;;;6.86;100.00
25560;BME280;13450;49.374;8.584;2023-04-08T04:54:57;100928.41;;;6.86;100.00
25560;BME280;13450;49.374;8.584;2023-04-08T04:57:23;100929.06;;;6.88;100.00
25560;BME280;13450;49.374;8.584;2023-04-08T04:59:50;100927.41;;;6.87;100.00
25560;BME280;13450;49.374;8.584;2023-04-08T05:02:16;100924.03;;;6.85;100.00
25560;BME280;13450;49.374;8.584;2023-04-08T05:04:43;100936.91;;;6.90;100.00
25560;BME280;13450;49.374;8.584;2023-04-08T05:07:09;100930.75;;;6.89;100.00
25560;BME280;13450;49.374;8.584;2023-04-08T05:09:34;100934.09;;;6.91;100.00
25560;BME280;13450;49.374;8.584;2023-04-08T05:11:59;100934.63;;;6.95;100.00
25560;BME280;13450;49.374;8.584;2023-04-08T05:14:28;100936.44;;;6.94;100.00
25560;BME280;13450;49.374;8.584;2023-04-08T05:16:53;100936.31;;;6.96;100.00
25560;BME280;13450;49.374;8.584;2023-04-08T05:19:18;100939.53;;;7.00;100.00
25560;BME280;13450;49.374;8.584;2023-04-08T05:21:44;100947.50;;;7.00;100.00
25560;BME280;13450;49.374;8.584;2023-04-08T05:24:09;100948.88;;;7.04;100.00
25560;BME280;13450;49.374;8.584;2023-04-08T05:26:36;100946.38;;;7.02;100.00
25560;BME280;13450;49.374;8.584;2023-04-08T05:29:01;100947.19;;;7.03;100.00
25560;BME280;13450;49.374;8.584;2023-04-08T05:31:27;100945.91;;;7.07;100.00
25560;BME280;13450;49.374;8.584;2023-04-08T05:33:52;100946.28;;;7.12;100.00
25560;BME280;13450;49.374;8.584;2023-04-08T05:36:18;100949.38;;;7.17;100.00
25560;BME280;13450;49.374;8.584;2023-04-08T05:38:43;100952.41;;;7.23;100.00
25560;BME280;13450;49.374;8.584;2023-04-08T05:41:09;100952.09;;;7.26;100.00
25560;BME280;13450;49.374;8.584;2023-04-08T05:43:35;100959.63;;;7.30;100.00
25560;BME280;13450;49.374;8.584;2023-04-08T05:46:05;100958.66;;;7.31;100.00
25560;BME280;13450;49.374;8.584;2023-04-08T05:48:31;100962.53;;;7.37;100.00
25560;BME280;13450;49.374;8.584;2023-04-08T05:50:57;100959.41;;;7.42;100.00
25560;BME280;13450;49.374;8.584;2023-04-08T05:53:22;100965.28;;;7.45;100.00
25560;BME280;13450;49.374;8.584;2023-04-08T05:55:49;100967.31;;;7.52;100.00
25560;BME280;13450;49.374;8.584;2023-04-08T05:58:14;100963.38;;;7.56;100.00
25560;BME280;13450;49.374;8.584;2023-04-08T06:00:40;100968.41;;;7.59;100.00
25560;BME280;13450;49.374;8.584;2023-04-08T06:03:05;100969.44;;;7.66;100.00
25560;BME280;13450;49.374;8.584;2023-04-08T06:05:30;100984.47;;;7.67;100.00
25560;BME280;13450;49.374;8.584;2023-04-08T06:07:56;100984.53;;;7.76;100.00
25560;BME280;13450;49.374;8.584;2023-04-08T06:10:24;100988.97;;;7.85;100.00
25560;BME280;13450;49.374;8.584;2023-04-08T06:12:49;100991.06;;;8.00;100.00
25560;BME280;13450;49.374;8.584;2023-04-08T06:15:14;100982.81;;;8.11;100.00
25560;BME280;13450;49.374;8.584;2023-04-08T06:17:41;100986.00;;;8.15;100.00
25560;BME280;13450;49.374;8.584;2023-04-08T06:20:06;100989.50;;;8.15;100.00
25560;BME280;13450;49.374;8.584;2023-04-08T06:22:35;100989.19;;;8.18;100.00
25560;BME280;13450;49.374;8.584;2023-04-08T06:25:01;100998.66;;;8.13;100.00
25560;BME280;13450;49.374;8.584;2023-04-08T06:27:26;100996.06;;;8.03;100.00
25560;BME280;13450;49.374;8.584;2023-04-08T06:29:54;101007.34;;;7.96;100.00
25560;BME280;13450;49.374;8.584;2023-04-08T06:32:22;101004.16;;;7.93;100.00
25560;BME280;13450;49.374;8.584;2023-04-08T06:34:47;101005.97;;;7.92;100.00
25560;BME280;13450;49.374;8.584;2023-04-08T06:37:15;101000.56;;;7.84;100.00
25560;BME280;13450;49.374;8.584;2023-04-08T06:39:40;101008.56;;;7.84;100.00
25560;BME280;13450;49.374;8.584;2023-04-08T06:42:06;101002.94;;;7.87;100.00
25560;BME280;13450;49.374;8.584;2023-04-08T06:44:33;100999.66;;;7.93;100.00
25560;BME280;13450;49.374;8.584;2023-04-08T06:47:01;101001.25;;;8.04;100.00
25560;BME280;13450;49.374;8.584;2023-04-08T06:49:29;101006.50;;;8.14;100.00
25560;BME280;13450;49.374;8.584;2023-04-08T06:51:54;101007.22;;;8.24;100.00
25560;BME280;13450;49.374;8.584;2023-04-08T06:54:19;101005.63;;;8.32;100.00
25560;BME280;13450;49.374;8.584;2023-04-08T06:56:47;101005.34;;;8.43;100.00
25560;BME280;13450;49.374;8.584;2023-04-08T06:59:12;101012.13;;;8.56;100.00
25560;BME280;13450;49.374;8.584;2023-04-08T07:01:37;101019.88;;;8.67;100.00
25560;BME280;13450;49.374;8.584;2023-04-08T07:04:02;101021.38;;;8.70;100.00
25560;BME280;13450;49.374;8.584;2023-04-08T07:06:28;101015.91;;;8.71;100.00
25560;BME280;13450;49.374;8.584;2023-04-08T07:08:53;101022.91;;;8.72;100.00
25560;BME280;13450;49.374;8.584;2023-04-08T07:11:18;101026.03;;;8.68;100.00
25560;BME280;13450;49.374;8.584;2023-04-08T07:13:46;101029.56;;;8.68;100.00
25560;BME280;13450;49.374;8.584;2023-04-08T07:16:11;101024.84;;;8.62;100.00
25560;BME280;13450;49.374;8.584;2023-04-08T07:18:36;101026.03;;;8.68;100.00
25560;BME280;13450;49.374;8.584;2023-04-08T07:21:02;101024.88;;;8.70;100.00
25560;BME280;13450;49.374;8.584;2023-04-08T07:23:27;101034.41;;;8.73;100.00
25560;BME280;13450;49.374;8.584;2023-04-08T07:25:52;101033.56;;;8.72;100.00
25560;BME280;13450;49.374;8.584;2023-04-08T07:28:19;101037.25;;;8.80;100.00
25560;BME280;13450;49.374;8.584;2023-04-08T07:30:44;101038.41;;;8.77;100.00
25560;BME280;13450;49.374;8.584;2023-04-08T07:33:10;101040.94;;;8.79;100.00
25560;BME280;13450;49.374;8.584;2023-04-08T07:35:35;101047.31;;;8.86;100.00
25560;BME280;13450;49.374;8.584;2023-04-08T07:38:00;101055.44;;;9.02;100.00
25560;BME280;13450;49.374;8.584;2023-04-08T07:40:26;101046.09;;;9.15;100.00
25560;BME280;13450;49.374;8.584;2023-04-08T07:42:51;101052.34;;;9.24;100.00
25560;BME280;13450;49.374;8.584;2023-04-08T07:45:19;101051.50;;;9.23;100.00
25560;BME280;13450;49.374;8.584;2023-04-08T07:47:44;101054.50;;;9.28;100.00
25560;BME280;13450;49.374;8.584;2023-04-08T07:50:10;101052.34;;;9.24;100.00
25560;BME280;13450;49.374;8.584;2023-04-08T07:52:35;101058.31;;;9.18;100.00
25560;BME280;13450;49.374;8.584;2023-04-08T07:55:01;101060.81;;;9.19;100.00
25560;BME280;13450;49.374;8.584;2023-04-08T07:57:26;101057.47;;;9.17;100.00
25560;BME280;13450;49.374;8.584;2023-04-08T07:59:54;101063.31;;;9.21;100.00
25560;BME280;13450;49.374;8.584;2023-04-08T08:02:20;101066.88;;;9.29;100.00
25560;BME280;13450;49.374;8.584;2023-04-08T08:04:45;101066.56;;;9.41;100.00
25560;BME280;13450;49.374;8.584;2023-04-08T08:07:10;101065.59;;;9.50;100.00
25560;BME280;13450;49.374;8.584;2023-04-08T08:09:35;101067.63;;;9.57;100.00
25560;BME280;13450;49.374;8.584;2023-04-08T08:12:01;101056.97;;;9.73;100.00
25560;BME280;13450;49.374;8.584;2023-04-08T08:14:26;101070.03;;;10.01;100.00
25560;BME280;13450;49.374;8.584;2023-04-08T08:16:53;101067.03;;;10.04;100.00
25560;BME280;13450;49.374;8.584;2023-04-08T08:19:19;101054.31;;;10.40;100.00
25560;BME280;13450;49.374;8.584;2023-04-08T08:21:44;101060.63;;;10.89;100.00
25560;BME280;13450;49.374;8.584;2023-04-08T08:24:09;101060.81;;;11.19;100.00
25560;BME280;13450;49.374;8.584;2023-04-08T08:26:35;101058.97;;;11.28;100.00
25560;BME280;13450;49.374;8.584;2023-04-08T08:29:01;101075.19;;;11.26;93.39
25560;BME280;13450;49.374;8.584;2023-04-08T08:31:26;101066.19;;;11.19;90.19
25560;BME280;13450;49.374;8.584;2023-04-08T08:33:52;101078.44;;;11.13;86.96
25560;BME280;13450;49.374;8.584;2023-04-08T08:36:19;101067.91;;;11.11;86.90
25560;BME280;13450;49.374;8.584;2023-04-08T08:38:45;101071.03;;;11.23;91.85
25560;BME280;13450;49.374;8.584;2023-04-08T08:41:10;101074.03;;;11.20;83.71
25560;BME280;13450;49.374;8.584;2023-04-08T08:43:35;101078.50;;;11.36;82.90
25560;BME280;13450;49.374;8.584;2023-04-08T08:46:02;101078.91;;;11.57;80.90
25560;BME280;13450;49.374;8.584;2023-04-08T08:48:27;101084.38;;;11.63;81.17
25560;BME280;13450;49.374;8.584;2023-04-08T08:50:53;101088.59;;;11.89;82.05
25560;BME280;13450;49.374;8.584;2023-04-08T08:53:19;101095.03;;;11.80;85.58
25560;BME280;13450;49.374;8.584;2023-04-08T08:55:44;101091.03;;;11.99;84.19
25560;BME280;13450;49.374;8.584;2023-04-08T08:58:10;101097.16;;;12.16;86.62
25560;BME280;13450;49.374;8.584;2023-04-08T09:00:41;101095.31;;;12.17;83.38
25560;BME280;13450;49.374;8.584;2023-04-08T09:03:20;101086.94;;;12.35;82.75
25560;BME280;13450;49.374;8.584;2023-04-08T09:05:59;101095.88;;;12.51;86.56
25560;BME280;13450;49.374;8.584;2023-04-08T09:08:32;101092.84;;;12.69;81.92
25560;BME280;13450;49.374;8.584;2023-04-08T09:11:20;101095.34;;;12.71;75.20
25560;BME280;13450;49.374;8.584;2023-04-08T09:13:48;101092.72;;;12.62;75.47
25560;BME280;13450;49.374;8.584;2023-04-08T09:16:17;101090.63;;;12.73;75.34
25560;BME280;13450;49.374;8.584;2023-04-08T09:18:44;101098.97;;;12.93;74.68
25560;BME280;13450;49.374;8.584;2023-04-08T09:21:12;101103.03;;;12.74;74.15
25560;BME280;13450;49.374;8.584;2023-04-08T09:26:33;101094.16;;;12.88;73.36
25560;BME280;13450;49.374;8.584;2023-04-08T09:29:05;101097.28;;;12.92;76.88
25560;BME280;13450;49.374;8.584;2023-04-08T09:31:36;101093.31;;;12.73;72.64
25560;BME280;13450;49.374;8.584;2023-04-08T09:34:16;101097.28;;;12.62;74.23
25560;BME280;13450;49.374;8.584;2023-04-08T09:36:44;101096.06;;;12.64;72.68
25560;BME280;13450;49.374;8.584;2023-04-08T09:39:13;101104.16;;;12.79;72.49
25560;BME280;13450;49.374;8.584;2023-04-08T09:41:41;101100.38;;;13.04;71.25
25560;BME280;13450;49.374;8.584;2023-04-08T09:44:08;101100.91;;;13.29;69.79
25560;BME280;13450;49.374;8.584;2023-04-08T09:49:25;101103.22;;;13.84;68.79
25560;BME280;13450;49.374;8.584;2023-04-08T09:57:12;101107.13;;;14.25;66.05
25560;BME280;13450;49.374;8.584;2023-04-08T09:59:44;101112.56;;;14.32;63.88
25560;BME280;13450;49.374;8.584;2023-04-08T10:02:20;101110.38;;;14.64;63.48
25560;BME280;13450;49.374;8.584;2023-04-08T10:04:53;101103.59;;;15.11;65.11
25560;BME280;13450;49.374;8.584;2023-04-08T10:07:22;101104.50;;;15.18;60.65
25560;BME280;13450;49.374;8.584;2023-04-08T10:09:48;101101.84;;;15.32;61.79
25560;BME280;13450;49.374;8.584;2023-04-08T10:12:13;101098.03;;;15.12;59.40
25560;BME280;13450;49.374;8.584;2023-04-08T10:14:39;101102.19;;;15.15;61.34
25560;BME280;13450;49.374;8.584;2023-04-08T10:17:24;101105.13;;;14.85;60.83
25560;BME280;13450;49.374;8.584;2023-04-08T10:19:52;101112.22;;;14.64;61.35
25560;BME280;13450;49.374;8.584;2023-04-08T10:27:43;101107.16;;;14.04;64.53
25560;BME280;13450;49.374;8.584;2023-04-08T10:32:56;101110.03;;;13.65;66.08
25560;BME280;13450;49.374;8.584;2023-04-08T10:35:37;101105.34;;;13.37;69.17
25560;BME280;13450;49.374;8.584;2023-04-08T10:38:12;101110.28;;;13.18;67.88
25560;BME280;13450;49.374;8.584;2023-04-08T10:40:39;101103.06;;;13.04;68.37
25560;BME280;13450;49.374;8.584;2023-04-08T10:43:14;101111.94;;;13.04;68.30
25560;BME280;13450;49.374;8.584;2023-04-08T10:45:40;101115.84;;;13.17;70.19
25560;BME280;13450;49.374;8.584;2023-04-08T10:48:17;101112.56;;;13.21;70.32
25560;BME280;13450;49.374;8.584;2023-04-08T10:50:44;101109.63;;;13.16;69.44
25560;BME280;13450;49.374;8.584;2023-04-08T10:53:11;101103.34;;;13.09;69.30
25560;BME280;13450;49.374;8.584;2023-04-08T10:55:36;101104.63;;;13.13;70.82
25560;BME280;13450;49.374;8.584;2023-04-08T10:58:06;101106.09;;;13.01;72.14
25560;BME280;13450;49.374;8.584;2023-04-08T11:00:33;101104.63;;;12.83;70.04
25560;BME280;13450;49.374;8.584;2023-04-08T11:03:05;101111.44;;;12.71;66.80
25560;BME280;13450;49.374;8.584;2023-04-08T11:05:32;101106.59;;;12.51;67.83
25560;BME280;13450;49.374;8.584;2023-04-08T11:07:58;101107.91;;;12.55;71.32
25560;BME280;13450;49.374;8.584;2023-04-08T11:10:24;101110.88;;;12.60;71.48
25560;BME280;13450;49.374;8.584;2023-04-08T11:12:50;101104.88;;;12.73;69.88
25560;BME280;13450;49.374;8.584;2023-04-08T11:15:16;101110.63;;;12.85;70.74
25560;BME280;13450;49.374;8.584;2023-04-08T11:17:46;101113.78;;;12.89;67.53
25560;BME280;13450;49.374;8.584;2023-04-08T11:20:11;101117.28;;;12.89;68.11
25560;BME280;13450;49.374;8.584;2023-04-08T11:22:38;101113.63;;;12.90;66.41
25560;BME280;13450;49.374;8.584;2023-04-08T11:25:04;101103.66;;;12.76;69.39
25560;BME280;13450;49.374;8.584;2023-04-08T11:27:32;101098.59;;;12.66;70.12
25560;BME280;13450;49.374;8.584;2023-04-08T11:29:58;101098.16;;;12.54;69.29
25560;BME280;13450;49.374;8.584;2023-04-08T11:32:24;101096.03;;;12.49;69.04
25560;BME280;13450;49.374;8.584;2023-04-08T11:34:50;101092.66;;;12.71;67.61
25560;BME280;13450;49.374;8.584;2023-04-08T11:37:15;101097.84;;;12.72;66.76
25560;BME280;13450;49.374;8.584;2023-04-08T11:39:45;101100.00;;;12.77;68.03
25560;BME280;13450;49.374;8.584;2023-04-08T11:42:29;101100.00;;;12.77;67.17
25560;BME280;13450;49.374;8.584;2023-04-08T11:44:57;101103.38;;;12.71;68.28
25560;BME280;13450;49.374;8.584;2023-04-08T11:47:32;101102.97;;;12.82;69.98
25560;BME280;13450;49.374;8.584;2023-04-08T11:50:00;101102.31;;;13.10;70.52
25560;BME280;13450;49.374;8.584;2023-04-08T11:52:47;101098.59;;;13.26;64.87
25560;BME280;13450;49.374;8.584;2023-04-08T11:55:27;101100.88;;;13.44;62.59
25560;BME280;13450;49.374;8.584;2023-04-08T11:57:54;101087.75;;;13.71;62.80
25560;BME280;13450;49.374;8.584;2023-04-08T12:00:22;101098.94;;;13.90;59.90
25560;BME280;13450;49.374;8.584;2023-04-08T12:02:50;101101.06;;;13.95;56.96
25560;BME280;13450;49.374;8.584;2023-04-08T12:05:16;101099.81;;;13.97;56.01
25560;BME280;13450;49.374;8.584;2023-04-08T12:07:42;101099.38;;;14.37;54.40
25560;BME280;13450;49.374;8.584;2023-04-08T12:10:10;101101.81;;;14.61;57.09
25560;BME280;13450;49.374;8.584;2023-04-08T12:12:39;101101.28;;;14.72;54.78
25560;BME280;13450;49.374;8.584;2023-04-08T12:15:07;101100.44;;;15.00;55.91
25560;BME280;13450;49.374;8.584;2023-04-08T12:17:33;101099.78;;;14.92;55.96
25560;BME280;13450;49.374;8.584;2023-04-08T12:19:58;101104.41;;;15.04;56.08
25560;BME280;13450;49.374;8.584;2023-04-08T12:22:24;101101.78;;;14.83;53.46
25560;BME280;13450;49.374;8.584;2023-04-08T12:24:49;101100.78;;;15.26;52.93
25560;BME280;13450;49.374;8.584;2023-04-08T12:27:17;101098.81;;;15.48;52.67
25560;BME280;13450;49.374;8.584;2023-04-08T12:29:42;101102.97;;;15.51;52.14
25560;BME280;13450;49.374;8.584;2023-04-08T12:32:08;101096.38;;;15.67;51.72
25560;BME280;13450;49.374;8.584;2023-04-08T12:34:33;101093.53;;;15.82;53.52
25560;BME280;13450;49.374;8.584;2023-04-08T12:36:58;101087.97;;;16.11;50.39
25560;BME280;13450;49.374;8.584;2023-04-08T12:39:24;101098.56;;;16.12;52.80
25560;BME280;13450;49.374;8.584;2023-04-08T12:41:49;101095.25;;;16.30;50.60
25560;BME280;13450;49.374;8.584;2023-04-08T12:44:15;101091.91;;;16.62;50.89
25560;BME280;13450;49.374;8.584;2023-04-08T12:46:40;101088.19;;;16.56;52.21
25560;BME280;13450;49.374;8.584;2023-04-08T12:49:08;101088.97;;;16.84;51.01
25560;BME280;13450;49.374;8.584;2023-04-08T12:51:34;101087.28;;;16.96;51.89
25560;BME280;13450;49.374;8.584;2023-04-08T12:54:02;101098.16;;;16.69;52.56
25560;BME280;13450;49.374;8.584;2023-04-08T12:56:28;101096.72;;;16.26;52.23
25560;BME280;13450;49.374;8.584;2023-04-08T12:58:53;101094.41;;;16.10;53.46
25560;BME280;13450;49.374;8.584;2023-04-08T13:01:20;101091.09;;;15.94;53.13
25560;BME280;13450;49.374;8.584;2023-04-08T13:03:45;101091.44;;;15.91;54.47
25560;BME280;13450;49.374;8.584;2023-04-08T13:06:12;101083.63;;;16.10;56.84
25560;BME280;13450;49.374;8.584;2023-04-08T13:08:37;101086.69;;;15.86;54.01
25560;BME280;13450;49.374;8.584;2023-04-08T13:11:02;101084.81;;;15.87;54.23